aviador You're here:

RCNN Decoded Metar

TAINAN in TAIWAN
Report Time2018-05-25 20:00:00
UTC Time2018-05-25 20:39:35
Flight Rules vfr VFR
Wind110° at 03 kt
W.Decomp.*RWY 18: 1.2 kt HW 2.8 kt LCW
W.Rank110° ranks 13
Current wind is below 110° avg. (3.4)
Visibility9999 m
Phenomena:N/A
Clouds:Few 012 Hf
Scattered 025 Hf
Expected CloudBase > 1,200 ft AGL from Temp-Dew spread
CeilingNone
Temp25°C (ISA +10)
Dew Point22°C (83% RH)
QNH1008 hPa
Density Alt1,752 ft
Elevation62 ft
Report Wrong Elevation
Raw Report
RCNN 252000Z 11003KT 9999 FEW012 SCT025 25/22 Q1008 RMK A2977=

Extra information for RCNN:More info

Metar Taf Metar & Taf Last 4 Metars F.Rules Stats Wind Profile Meteogram Temp Stats Airport Information Weather charts Add Link Nearby VenuesMetar ALERT Operation Metar Decoded Social comments